sensor_id;sensor_type;location;lat;lon;timestamp;P1;durP1;ratioP1;P2;durP2;ratioP2
14080;SDS011;7116;52.152;5.392;2023-06-26T00:01:13;9.00;;;6.20;;
14080;SDS011;7116;52.152;5.392;2023-06-26T00:03:38;8.47;;;5.87;;
14080;SDS011;7116;52.152;5.392;2023-06-26T00:06:04;7.80;;;5.83;;
14080;SDS011;7116;52.152;5.392;2023-06-26T00:08:47;8.37;;;5.87;;
14080;SDS011;7116;52.152;5.392;2023-06-26T00:11:12;8.93;;;5.47;;
14080;SDS011;7116;52.152;5.392;2023-06-26T00:13:37;8.70;;;5.83;;
14080;SDS011;7116;52.152;5.392;2023-06-26T00:16:04;8.55;;;5.85;;
14080;SDS011;7116;52.152;5.392;2023-06-26T00:18:29;8.60;;;6.10;;
14080;SDS011;7116;52.152;5.392;2023-06-26T00:20:54;7.80;;;6.03;;
14080;SDS011;7116;52.152;5.392;2023-06-26T00:23:20;8.83;;;5.50;;
14080;SDS011;7116;52.152;5.392;2023-06-26T00:25:45;7.37;;;5.73;;
14080;SDS011;7116;52.152;5.392;2023-06-26T00:28:17;10.27;;;6.43;;
14080;SDS011;7116;52.152;5.392;2023-06-26T00:31:13;9.75;;;6.03;;
14080;SDS011;7116;52.152;5.392;2023-06-26T00:33:37;9.43;;;6.25;;
14080;SDS011;7116;52.152;5.392;2023-06-26T00:36:02;7.63;;;5.30;;
14080;SDS011;7116;52.152;5.392;2023-06-26T00:38:28;8.03;;;5.57;;
14080;SDS011;7116;52.152;5.392;2023-06-26T00:40:55;10.68;;;6.40;;
14080;SDS011;7116;52.152;5.392;2023-06-26T00:43:21;8.50;;;6.03;;
14080;SDS011;7116;52.152;5.392;2023-06-26T00:45:46;8.97;;;5.63;;
14080;SDS011;7116;52.152;5.392;2023-06-26T00:48:12;8.95;;;5.45;;
14080;SDS011;7116;52.152;5.392;2023-06-26T00:50:37;6.57;;;5.43;;
14080;SDS011;7116;52.152;5.392;2023-06-26T00:53:02;11.03;;;5.80;;
14080;SDS011;7116;52.152;5.392;2023-06-26T00:55:27;7.97;;;5.60;;
14080;SDS011;7116;52.152;5.392;2023-06-26T00:57:54;7.00;;;5.45;;
14080;SDS011;7116;52.152;5.392;2023-06-26T01:00:19;7.53;;;5.60;;
14080;SDS011;7116;52.152;5.392;2023-06-26T01:02:45;7.43;;;5.53;;
14080;SDS011;7116;52.152;5.392;2023-06-26T01:05:11;7.47;;;5.28;;
14080;SDS011;7116;52.152;5.392;2023-06-26T01:07:38;6.90;;;5.38;;
14080;SDS011;7116;52.152;5.392;2023-06-26T01:10:04;8.20;;;5.30;;
14080;SDS011;7116;52.152;5.392;2023-06-26T01:12:30;8.17;;;5.37;;
14080;SDS011;7116;52.152;5.392;2023-06-26T01:14:56;10.63;;;5.60;;
14080;SDS011;7116;52.152;5.392;2023-06-26T01:17:21;7.57;;;5.60;;
14080;SDS011;7116;52.152;5.392;2023-06-26T01:19:46;8.15;;;5.20;;
14080;SDS011;7116;52.152;5.392;2023-06-26T01:22:31;6.57;;;5.53;;
14080;SDS011;7116;52.152;5.392;2023-06-26T01:25:15;6.55;;;4.78;;
14080;SDS011;7116;52.152;5.392;2023-06-26T01:27:46;8.07;;;5.68;;
14080;SDS011;7116;52.152;5.392;2023-06-26T01:33:40;6.18;;;4.50;;
14080;SDS011;7116;52.152;5.392;2023-06-26T01:36:12;7.03;;;5.55;;
14080;SDS011;7116;52.152;5.392;2023-06-26T01:41:53;8.95;;;5.00;;
14080;SDS011;7116;52.152;5.392;2023-06-26T01:44:26;6.77;;;5.00;;
14080;SDS011;7116;52.152;5.392;2023-06-26T01:47:02;6.47;;;4.60;;
14080;SDS011;7116;52.152;5.392;2023-06-26T01:54:30;6.87;;;4.50;;
14080;SDS011;7116;52.152;5.392;2023-06-26T01:59:53;7.13;;;4.50;;
14080;SDS011;7116;52.152;5.392;2023-06-26T02:02:25;9.60;;;4.40;;
14080;SDS011;7116;52.152;5.392;2023-06-26T02:05:14;9.63;;;4.45;;
14080;SDS011;7116;52.152;5.392;2023-06-26T02:07:39;7.33;;;4.10;;
14080;SDS011;7116;52.152;5.392;2023-06-26T02:10:05;8.20;;;4.43;;
14080;SDS011;7116;52.152;5.392;2023-06-26T02:12:39;9.18;;;4.68;;
14080;SDS011;7116;52.152;5.392;2023-06-26T02:15:14;6.30;;;3.87;;
14080;SDS011;7116;52.152;5.392;2023-06-26T02:20:32;9.68;;;3.95;;
14080;SDS011;7116;52.152;5.392;2023-06-26T02:22:58;8.73;;;4.27;;
14080;SDS011;7116;52.152;5.392;2023-06-26T02:25:23;8.75;;;4.03;;
14080;SDS011;7116;52.152;5.392;2023-06-26T02:28:06;8.93;;;3.77;;
14080;SDS011;7116;52.152;5.392;2023-06-26T02:30:31;5.77;;;3.90;;
14080;SDS011;7116;52.152;5.392;2023-06-26T02:32:56;8.27;;;3.53;;
14080;SDS011;7116;52.152;5.392;2023-06-26T02:38:26;6.93;;;3.95;;
14080;SDS011;7116;52.152;5.392;2023-06-26T02:41:00;10.23;;;3.50;;
14080;SDS011;7116;52.152;5.392;2023-06-26T02:46:31;12.02;;;3.83;;
14080;SDS011;7116;52.152;5.392;2023-06-26T02:58:16;9.10;;;3.80;;
14080;SDS011;7116;52.152;5.392;2023-06-26T03:01:01;7.80;;;3.45;;
14080;SDS011;7116;52.152;5.392;2023-06-26T03:03:44;8.67;;;4.20;;
14080;SDS011;7116;52.152;5.392;2023-06-26T03:06:12;10.98;;;4.25;;
14080;SDS011;7116;52.152;5.392;2023-06-26T03:08:37;8.57;;;4.20;;
14080;SDS011;7116;52.152;5.392;2023-06-26T03:11:11;7.20;;;3.70;;
14080;SDS011;7116;52.152;5.392;2023-06-26T03:13:44;9.18;;;3.92;;
14080;SDS011;7116;52.152;5.392;2023-06-26T03:16:09;9.40;;;3.60;;
14080;SDS011;7116;52.152;5.392;2023-06-26T03:18:52;10.37;;;3.87;;
14080;SDS011;7116;52.152;5.392;2023-06-26T03:21:19;7.53;;;3.42;;
14080;SDS011;7116;52.152;5.392;2023-06-26T03:23:45;11.00;;;4.23;;
14080;SDS011;7116;52.152;5.392;2023-06-26T03:26:10;9.10;;;4.07;;
14080;SDS011;7116;52.152;5.392;2023-06-26T03:28:35;12.60;;;4.53;;
14080;SDS011;7116;52.152;5.392;2023-06-26T03:31:01;8.70;;;4.27;;
14080;SDS011;7116;52.152;5.392;2023-06-26T03:33:28;10.15;;;3.85;;
14080;SDS011;7116;52.152;5.392;2023-06-26T03:35:53;10.23;;;3.93;;
14080;SDS011;7116;52.152;5.392;2023-06-26T03:38:19;9.27;;;4.20;;
14080;SDS011;7116;52.152;5.392;2023-06-26T03:40:44;10.80;;;4.17;;
14080;SDS011;7116;52.152;5.392;2023-06-26T03:43:09;9.10;;;3.90;;
14080;SDS011;7116;52.152;5.392;2023-06-26T03:45:34;10.70;;;4.47;;
14080;SDS011;7116;52.152;5.392;2023-06-26T03:48:02;9.07;;;4.32;;
14080;SDS011;7116;52.152;5.392;2023-06-26T03:50:44;11.30;;;4.50;;
14080;SDS011;7116;52.152;5.392;2023-06-26T03:56:53;7.73;;;4.20;;
14080;SDS011;7116;52.152;5.392;2023-06-26T03:59:19;12.05;;;4.90;;
14080;SDS011;7116;52.152;5.392;2023-06-26T04:01:44;13.73;;;5.20;;
14080;SDS011;7116;52.152;5.392;2023-06-26T04:04:52;12.60;;;5.20;;
14080;SDS011;7116;52.152;5.392;2023-06-26T04:07:10;17.55;;;5.15;;
14080;SDS011;7116;52.152;5.392;2023-06-26T04:25:37;10.23;;;4.28;;
14080;SDS011;7116;52.152;5.392;2023-06-26T04:34:47;10.35;;;4.18;;
14080;SDS011;7116;52.152;5.392;2023-06-26T04:43:51;12.25;;;3.95;;
14080;SDS011;7116;52.152;5.392;2023-06-26T04:49:59;10.05;;;4.07;;
14080;SDS011;7116;52.152;5.392;2023-06-26T04:52:24;10.88;;;4.13;;
14080;SDS011;7116;52.152;5.392;2023-06-26T04:54:49;9.83;;;3.90;;
14080;SDS011;7116;52.152;5.392;2023-06-26T04:57:15;10.43;;;4.23;;
14080;SDS011;7116;52.152;5.392;2023-06-26T04:59:40;10.57;;;4.37;;
14080;SDS011;7116;52.152;5.392;2023-06-26T05:02:05;12.83;;;4.20;;
14080;SDS011;7116;52.152;5.392;2023-06-26T05:04:31;11.40;;;3.97;;
14080;SDS011;7116;52.152;5.392;2023-06-26T05:06:56;8.83;;;3.97;;
14080;SDS011;7116;52.152;5.392;2023-06-26T05:09:21;8.57;;;4.10;;
14080;SDS011;7116;52.152;5.392;2023-06-26T05:11:47;9.73;;;4.13;;
14080;SDS011;7116;52.152;5.392;2023-06-26T05:17:38;7.32;;;3.30;;
14080;SDS011;7116;52.152;5.392;2023-06-26T05:23:11;11.63;;;3.73;;
14080;SDS011;7116;52.152;5.392;2023-06-26T05:28:46;6.90;;;3.63;;
14080;SDS011;7116;52.152;5.392;2023-06-26T05:31:13;9.40;;;3.60;;
14080;SDS011;7116;52.152;5.392;2023-06-26T05:33:38;8.10;;;3.53;;
14080;SDS011;7116;52.152;5.392;2023-06-26T05:36:06;11.63;;;3.78;;
14080;SDS011;7116;52.152;5.392;2023-06-26T05:38:32;8.98;;;3.42;;
14080;SDS011;7116;52.152;5.392;2023-06-26T05:40:57;5.77;;;3.07;;
14080;SDS011;7116;52.152;5.392;2023-06-26T05:43:23;4.30;;;3.00;;
14080;SDS011;7116;52.152;5.392;2023-06-26T05:45:51;9.57;;;3.37;;
14080;SDS011;7116;52.152;5.392;2023-06-26T05:48:18;6.88;;;3.22;;
14080;SDS011;7116;52.152;5.392;2023-06-26T05:50:44;9.30;;;3.20;;
14080;SDS011;7116;52.152;5.392;2023-06-26T05:53:10;6.35;;;3.17;;
14080;SDS011;7116;52.152;5.392;2023-06-26T05:55:35;8.13;;;2.97;;
14080;SDS011;7116;52.152;5.392;2023-06-26T05:58:01;6.55;;;3.03;;
14080;SDS011;7116;52.152;5.392;2023-06-26T06:00:30;5.72;;;3.03;;
14080;SDS011;7116;52.152;5.392;2023-06-26T06:02:58;5.73;;;2.67;;
14080;SDS011;7116;52.152;5.392;2023-06-26T06:05:23;4.80;;;2.40;;
14080;SDS011;7116;52.152;5.392;2023-06-26T06:07:49;9.07;;;2.78;;
14080;SDS011;7116;52.152;5.392;2023-06-26T06:10:14;6.70;;;3.00;;
14080;SDS011;7116;52.152;5.392;2023-06-26T06:12:39;7.80;;;2.40;;
14080;SDS011;7116;52.152;5.392;2023-06-26T06:15:05;5.27;;;2.43;;
14080;SDS011;7116;52.152;5.392;2023-06-26T06:17:30;7.35;;;2.55;;
14080;SDS011;7116;52.152;5.392;2023-06-26T06:19:55;4.30;;;2.23;;
14080;SDS011;7116;52.152;5.392;2023-06-26T06:22:21;8.37;;;2.97;;
14080;SDS011;7116;52.152;5.392;2023-06-26T06:24:46;4.43;;;2.77;;
14080;SDS011;7116;52.152;5.392;2023-06-26T06:27:11;4.80;;;2.37;;
14080;SDS011;7116;52.152;5.392;2023-06-26T06:29:37;5.47;;;2.90;;
14080;SDS011;7116;52.152;5.392;2023-06-26T06:32:02;4.97;;;2.47;;
14080;SDS011;7116;52.152;5.392;2023-06-26T06:34:27;5.07;;;2.33;;
14080;SDS011;7116;52.152;5.392;2023-06-26T06:36:55;5.35;;;2.80;;
14080;SDS011;7116;52.152;5.392;2023-06-26T06:39:20;5.47;;;2.60;;
14080;SDS011;7116;52.152;5.392;2023-06-26T06:41:45;8.43;;;3.50;;
14080;SDS011;7116;52.152;5.392;2023-06-26T06:44:10;8.43;;;2.83;;
14080;SDS011;7116;52.152;5.392;2023-06-26T06:46:36;4.77;;;2.90;;
14080;SDS011;7116;52.152;5.392;2023-06-26T06:49:01;6.10;;;3.13;;
14080;SDS011;7116;52.152;5.392;2023-06-26T06:51:26;6.80;;;3.23;;
14080;SDS011;7116;52.152;5.392;2023-06-26T06:53:52;4.60;;;2.17;;
14080;SDS011;7116;52.152;5.392;2023-06-26T06:56:17;5.80;;;2.67;;
14080;SDS011;7116;52.152;5.392;2023-06-26T06:58:42;4.20;;;2.40;;
14080;SDS011;7116;52.152;5.392;2023-06-26T07:01:11;7.57;;;2.65;;
14080;SDS011;7116;52.152;5.392;2023-06-26T07:03:36;7.37;;;3.10;;
14080;SDS011;7116;52.152;5.392;2023-06-26T07:06:02;6.03;;;2.80;;
14080;SDS011;7116;52.152;5.392;2023-06-26T07:08:28;6.50;;;3.08;;
14080;SDS011;7116;52.152;5.392;2023-06-26T07:10:53;4.72;;;2.42;;
14080;SDS011;7116;52.152;5.392;2023-06-26T07:13:19;6.17;;;2.40;;
14080;SDS011;7116;52.152;5.392;2023-06-26T07:15:45;6.23;;;3.30;;
14080;SDS011;7116;52.152;5.392;2023-06-26T07:18:10;8.00;;;2.83;;
14080;SDS011;7116;52.152;5.392;2023-06-26T07:20:35;5.97;;;2.93;;
14080;SDS011;7116;52.152;5.392;2023-06-26T07:23:00;6.43;;;2.60;;
14080;SDS011;7116;52.152;5.392;2023-06-26T07:25:26;8.25;;;2.90;;
14080;SDS011;7116;52.152;5.392;2023-06-26T07:27:51;7.10;;;3.10;;
14080;SDS011;7116;52.152;5.392;2023-06-26T07:30:16;6.67;;;3.60;;
14080;SDS011;7116;52.152;5.392;2023-06-26T07:32:44;6.00;;;3.13;;
14080;SDS011;7116;52.152;5.392;2023-06-26T07:35:10;4.67;;;2.70;;
14080;SDS011;7116;52.152;5.392;2023-06-26T07:37:36;6.15;;;3.28;;
14080;SDS011;7116;52.152;5.392;2023-06-26T07:40:01;7.57;;;3.00;;
14080;SDS011;7116;52.152;5.392;2023-06-26T07:42:27;10.57;;;3.17;;
14080;SDS011;7116;52.152;5.392;2023-06-26T07:44:52;6.53;;;2.60;;
14080;SDS011;7116;52.152;5.392;2023-06-26T07:47:17;6.50;;;3.10;;
14080;SDS011;7116;52.152;5.392;2023-06-26T07:49:43;5.93;;;2.77;;
14080;SDS011;7116;52.152;5.392;2023-06-26T07:52:08;6.70;;;2.93;;
14080;SDS011;7116;52.152;5.392;2023-06-26T07:54:35;7.38;;;2.90;;
14080;SDS011;7116;52.152;5.392;2023-06-26T07:57:02;5.70;;;2.53;;
14080;SDS011;7116;52.152;5.392;2023-06-26T07:59:28;6.25;;;3.25;;
14080;SDS011;7116;52.152;5.392;2023-06-26T08:01:54;8.10;;;2.70;;
14080;SDS011;7116;52.152;5.392;2023-06-26T08:04:21;10.63;;;3.15;;
14080;SDS011;7116;52.152;5.392;2023-06-26T08:06:50;5.82;;;2.90;;
14080;SDS011;7116;52.152;5.392;2023-06-26T08:09:16;5.70;;;2.90;;
14080;SDS011;7116;52.152;5.392;2023-06-26T08:11:41;6.15;;;3.10;;
14080;SDS011;7116;52.152;5.392;2023-06-26T08:14:08;10.03;;;3.60;;
14080;SDS011;7116;52.152;5.392;2023-06-26T08:16:33;4.60;;;2.57;;
14080;SDS011;7116;52.152;5.392;2023-06-26T08:18:59;5.53;;;3.13;;
14080;SDS011;7116;52.152;5.392;2023-06-26T08:21:24;6.97;;;3.10;;
14080;SDS011;7116;52.152;5.392;2023-06-26T08:23:49;7.50;;;2.90;;
14080;SDS011;7116;52.152;5.392;2023-06-26T08:26:14;5.97;;;2.40;;
14080;SDS011;7116;52.152;5.392;2023-06-26T08:28:39;7.13;;;2.77;;
14080;SDS011;7116;52.152;5.392;2023-06-26T08:31:05;5.77;;;2.67;;
14080;SDS011;7116;52.152;5.392;2023-06-26T08:33:30;6.97;;;2.23;;
14080;SDS011;7116;52.152;5.392;2023-06-26T08:35:55;9.87;;;2.63;;
14080;SDS011;7116;52.152;5.392;2023-06-26T08:38:20;4.80;;;2.13;;
14080;SDS011;7116;52.152;5.392;2023-06-26T08:40:46;7.17;;;2.20;;
14080;SDS011;7116;52.152;5.392;2023-06-26T08:43:11;6.10;;;2.20;;
14080;SDS011;7116;52.152;5.392;2023-06-26T08:45:36;6.70;;;2.17;;
14080;SDS011;7116;52.152;5.392;2023-06-26T08:48:02;7.07;;;2.33;;
14080;SDS011;7116;52.152;5.392;2023-06-26T08:50:30;5.22;;;2.40;;
14080;SDS011;7116;52.152;5.392;2023-06-26T08:55:21;6.33;;;2.43;;
14080;SDS011;7116;52.152;5.392;2023-06-26T08:57:49;4.22;;;1.70;;
14080;SDS011;7116;52.152;5.392;2023-06-26T09:00:15;6.40;;;2.25;;
14080;SDS011;7116;52.152;5.392;2023-06-26T09:02:40;5.93;;;2.23;;
14080;SDS011;7116;52.152;5.392;2023-06-26T09:05:06;4.57;;;1.83;;
14080;SDS011;7116;52.152;5.392;2023-06-26T09:07:31;4.50;;;2.10;;
14080;SDS011;7116;52.152;5.392;2023-06-26T09:09:57;5.70;;;2.03;;
14080;SDS011;7116;52.152;5.392;2023-06-26T09:12:23;6.47;;;1.92;;
14080;SDS011;7116;52.152;5.392;2023-06-26T09:14:48;4.20;;;1.90;;
14080;SDS011;7116;52.152;5.392;2023-06-26T09:17:15;4.97;;;1.88;;
14080;SDS011;7116;52.152;5.392;2023-06-26T09:19:40;8.47;;;1.70;;
14080;SDS011;7116;52.152;5.392;2023-06-26T09:22:10;4.07;;;1.70;;
14080;SDS011;7116;52.152;5.392;2023-06-26T09:24:36;5.25;;;1.90;;
14080;SDS011;7116;52.152;5.392;2023-06-26T09:27:01;11.17;;;2.13;;
14080;SDS011;7116;52.152;5.392;2023-06-26T09:29:27;9.07;;;2.13;;
14080;SDS011;7116;52.152;5.392;2023-06-26T09:31:53;6.93;;;2.10;;
14080;SDS011;7116;52.152;5.392;2023-06-26T09:34:21;10.75;;;2.33;;
14080;SDS011;7116;52.152;5.392;2023-06-26T09:36:46;4.93;;;2.00;;
14080;SDS011;7116;52.152;5.392;2023-06-26T09:39:12;5.47;;;2.47;;
14080;SDS011;7116;52.152;5.392;2023-06-26T09:41:43;5.93;;;1.77;;
14080;SDS011;7116;52.152;5.392;2023-06-26T09:44:10;2.80;;;1.80;;
14080;SDS011;7116;52.152;5.392;2023-06-26T09:46:37;5.18;;;2.20;;
14080;SDS011;7116;52.152;5.392;2023-06-26T09:49:03;5.38;;;2.03;;
14080;SDS011;7116;52.152;5.392;2023-06-26T09:51:31;4.32;;;2.10;;
14080;SDS011;7116;52.152;5.392;2023-06-26T09:53:57;6.17;;;1.90;;
14080;SDS011;7116;52.152;5.392;2023-06-26T09:56:23;3.95;;;2.08;;
14080;SDS011;7116;52.152;5.392;2023-06-26T09:58:49;5.07;;;2.20;;
14080;SDS011;7116;52.152;5.392;2023-06-26T10:01:14;2.97;;;1.90;;
14080;SDS011;7116;52.152;5.392;2023-06-26T10:03:39;2.60;;;1.40;;
14080;SDS011;7116;52.152;5.392;2023-06-26T10:06:05;6.40;;;2.33;;
14080;SDS011;7116;52.152;5.392;2023-06-26T10:08:31;4.22;;;2.20;;
14080;SDS011;7116;52.152;5.392;2023-06-26T10:10:58;4.38;;;2.00;;
14080;SDS011;7116;52.152;5.392;2023-06-26T10:13:34;5.13;;;2.20;;
14080;SDS011;7116;52.152;5.392;2023-06-26T10:16:02;7.82;;;2.30;;
14080;SDS011;7116;52.152;5.392;2023-06-26T10:18:27;5.07;;;1.73;;
14080;SDS011;7116;52.152;5.392;2023-06-26T10:20:53;3.67;;;1.90;;
14080;SDS011;7116;52.152;5.392;2023-06-26T10:23:20;6.78;;;2.03;;
14080;SDS011;7116;52.152;5.392;2023-06-26T10:25:48;4.10;;;1.77;;
14080;SDS011;7116;52.152;5.392;2023-06-26T10:28:13;5.15;;;1.70;;
14080;SDS011;7116;52.152;5.392;2023-06-26T10:30:40;5.40;;;2.13;;
14080;SDS011;7116;52.152;5.392;2023-06-26T10:33:06;3.87;;;1.87;;
14080;SDS011;7116;52.152;5.392;2023-06-26T10:35:32;2.00;;;1.45;;
14080;SDS011;7116;52.152;5.392;2023-06-26T10:38:01;6.17;;;2.23;;
14080;SDS011;7116;52.152;5.392;2023-06-26T10:40:28;3.95;;;2.15;;
14080;SDS011;7116;52.152;5.392;2023-06-26T10:43:09;6.55;;;1.80;;
14080;SDS011;7116;52.152;5.392;2023-06-26T10:45:35;5.00;;;1.77;;
14080;SDS011;7116;52.152;5.392;2023-06-26T10:48:01;4.05;;;1.70;;
14080;SDS011;7116;52.152;5.392;2023-06-26T10:50:29;10.88;;;1.55;;
14080;SDS011;7116;52.152;5.392;2023-06-26T10:53:12;5.30;;;1.80;;
14080;SDS011;7116;52.152;5.392;2023-06-26T10:55:48;4.25;;;2.05;;
14080;SDS011;7116;52.152;5.392;2023-06-26T10:58:26;4.90;;;1.73;;
14080;SDS011;7116;52.152;5.392;2023-06-26T11:01:02;4.47;;;1.60;;
14080;SDS011;7116;52.152;5.392;2023-06-26T11:03:39;3.67;;;1.58;;
14080;SDS011;7116;52.152;5.392;2023-06-26T11:06:18;4.05;;;1.73;;
14080;SDS011;7116;52.152;5.392;2023-06-26T11:08:44;4.38;;;2.10;;
14080;SDS011;7116;52.152;5.392;2023-06-26T11:11:09;6.43;;;1.80;;
14080;SDS011;7116;52.152;5.392;2023-06-26T11:13:34;4.60;;;1.90;;
14080;SDS011;7116;52.152;5.392;2023-06-26T11:16:00;3.13;;;1.87;;
14080;SDS011;7116;52.152;5.392;2023-06-26T11:18:26;4.35;;;1.95;;
14080;SDS011;7116;52.152;5.392;2023-06-26T11:20:51;6.73;;;2.27;;
14080;SDS011;7116;52.152;5.392;2023-06-26T11:23:19;4.40;;;1.80;;
14080;SDS011;7116;52.152;5.392;2023-06-26T11:25:47;5.10;;;1.92;;
14080;SDS011;7116;52.152;5.392;2023-06-26T11:28:12;3.87;;;1.97;;
14080;SDS011;7116;52.152;5.392;2023-06-26T11:30:37;7.07;;;1.80;;
14080;SDS011;7116;52.152;5.392;2023-06-26T11:33:05;7.88;;;1.70;;
14080;SDS011;7116;52.152;5.392;2023-06-26T11:35:30;4.63;;;1.98;;
14080;SDS011;7116;52.152;5.392;2023-06-26T11:37:56;4.00;;;1.73;;
14080;SDS011;7116;52.152;5.392;2023-06-26T11:40:22;3.42;;;1.80;;
14080;SDS011;7116;52.152;5.392;2023-06-26T11:42:52;3.28;;;1.52;;
14080;SDS011;7116;52.152;5.392;2023-06-26T11:45:59;5.33;;;1.70;;
14080;SDS011;7116;52.152;5.392;2023-06-26T11:51:31;5.75;;;1.83;;
14080;SDS011;7116;52.152;5.392;2023-06-26T11:54:14;4.37;;;1.80;;
14080;SDS011;7116;52.152;5.392;2023-06-26T11:56:39;4.10;;;1.88;;
14080;SDS011;7116;52.152;5.392;2023-06-26T11:59:06;5.50;;;1.77;;
14080;SDS011;7116;52.152;5.392;2023-06-26T12:01:32;3.47;;;1.65;;
14080;SDS011;7116;52.152;5.392;2023-06-26T12:03:58;7.63;;;1.65;;
14080;SDS011;7116;52.152;5.392;2023-06-26T12:06:24;3.93;;;1.80;;
14080;SDS011;7116;52.152;5.392;2023-06-26T12:08:50;6.00;;;1.90;;
14080;SDS011;7116;52.152;5.392;2023-06-26T12:11:15;4.60;;;1.80;;
14080;SDS011;7116;52.152;5.392;2023-06-26T12:13:40;4.97;;;1.27;;
14080;SDS011;7116;52.152;5.392;2023-06-26T12:16:05;5.23;;;1.60;;
14080;SDS011;7116;52.152;5.392;2023-06-26T12:18:35;3.77;;;1.90;;
14080;SDS011;7116;52.152;5.392;2023-06-26T12:21:00;3.35;;;1.38;;
14080;SDS011;7116;52.152;5.392;2023-06-26T12:23:31;4.33;;;1.57;;
14080;SDS011;7116;52.152;5.392;2023-06-26T12:25:57;5.87;;;1.77;;
14080;SDS011;7116;52.152;5.392;2023-06-26T12:28:22;4.10;;;1.50;;
14080;SDS011;7116;52.152;5.392;2023-06-26T12:30:54;3.77;;;1.63;;
14080;SDS011;7116;52.152;5.392;2023-06-26T12:33:32;3.83;;;1.45;;
14080;SDS011;7116;52.152;5.392;2023-06-26T12:35:58;2.83;;;1.63;;
14080;SDS011;7116;52.152;5.392;2023-06-26T12:38:23;3.17;;;1.50;;
14080;SDS011;7116;52.152;5.392;2023-06-26T12:40:48;7.10;;;1.80;;
14080;SDS011;7116;52.152;5.392;2023-06-26T12:43:23;3.77;;;1.70;;
14080;SDS011;7116;52.152;5.392;2023-06-26T12:45:53;2.67;;;1.40;;
14080;SDS011;7116;52.152;5.392;2023-06-26T12:48:18;4.18;;;1.90;;
14080;SDS011;7116;52.152;5.392;2023-06-26T12:50:45;5.53;;;1.77;;
14080;SDS011;7116;52.152;5.392;2023-06-26T12:53:10;5.20;;;1.63;;
14080;SDS011;7116;52.152;5.392;2023-06-26T12:55:36;2.93;;;1.80;;
14080;SDS011;7116;52.152;5.392;2023-06-26T12:58:01;5.20;;;1.60;;
14080;SDS011;7116;52.152;5.392;2023-06-26T13:00:26;5.07;;;1.87;;
14080;SDS011;7116;52.152;5.392;2023-06-26T13:02:51;4.70;;;1.97;;
14080;SDS011;7116;52.152;5.392;2023-06-26T13:05:16;3.53;;;1.57;;
14080;SDS011;7116;52.152;5.392;2023-06-26T13:07:42;4.10;;;1.70;;
14080;SDS011;7116;52.152;5.392;2023-06-26T13:10:07;4.00;;;1.70;;
14080;SDS011;7116;52.152;5.392;2023-06-26T13:12:33;4.17;;;1.73;;
14080;SDS011;7116;52.152;5.392;2023-06-26T13:14:59;5.28;;;1.33;;
14080;SDS011;7116;52.152;5.392;2023-06-26T13:17:24;2.77;;;1.50;;
14080;SDS011;7116;52.152;5.392;2023-06-26T13:19:49;2.17;;;1.60;;
14080;SDS011;7116;52.152;5.392;2023-06-26T13:22:14;2.83;;;1.50;;
14080;SDS011;7116;52.152;5.392;2023-06-26T13:24:40;5.73;;;1.63;;
14080;SDS011;7116;52.152;5.392;2023-06-26T13:27:06;5.75;;;1.77;;
14080;SDS011;7116;52.152;5.392;2023-06-26T13:29:31;2.67;;;1.60;;
14080;SDS011;7116;52.152;5.392;2023-06-26T13:31:57;5.73;;;1.87;;
14080;SDS011;7116;52.152;5.392;2023-06-26T13:34:23;3.88;;;1.80;;
14080;SDS011;7116;52.152;5.392;2023-06-26T13:36:48;3.53;;;1.50;;
14080;SDS011;7116;52.152;5.392;2023-06-26T13:39:13;3.37;;;2.10;;
14080;SDS011;7116;52.152;5.392;2023-06-26T13:41:39;4.13;;;1.73;;
14080;SDS011;7116;52.152;5.392;2023-06-26T13:44:04;4.33;;;1.77;;
14080;SDS011;7116;52.152;5.392;2023-06-26T13:46:29;5.10;;;1.60;;
14080;SDS011;7116;52.152;5.392;2023-06-26T13:48:54;3.83;;;1.83;;
14080;SDS011;7116;52.152;5.392;2023-06-26T13:51:19;4.27;;;1.67;;
14080;SDS011;7116;52.152;5.392;2023-06-26T13:53:45;4.53;;;1.67;;
14080;SDS011;7116;52.152;5.392;2023-06-26T13:56:10;3.20;;;1.83;;
14080;SDS011;7116;52.152;5.392;2023-06-26T13:58:35;5.53;;;1.70;;
14080;SDS011;7116;52.152;5.392;2023-06-26T14:01:01;3.42;;;1.80;;
14080;SDS011;7116;52.152;5.392;2023-06-26T14:03:26;3.23;;;1.57;;
14080;SDS011;7116;52.152;5.392;2023-06-26T14:05:55;2.88;;;1.50;;
14080;SDS011;7116;52.152;5.392;2023-06-26T14:08:20;3.97;;;1.97;;
14080;SDS011;7116;52.152;5.392;2023-06-26T14:10:45;5.67;;;1.50;;
14080;SDS011;7116;52.152;5.392;2023-06-26T14:13:10;3.53;;;1.73;;
14080;SDS011;7116;52.152;5.392;2023-06-26T14:15:40;3.45;;;1.70;;
14080;SDS011;7116;52.152;5.392;2023-06-26T14:18:05;5.77;;;1.70;;
14080;SDS011;7116;52.152;5.392;2023-06-26T14:20:30;3.07;;;1.60;;
14080;SDS011;7116;52.152;5.392;2023-06-26T14:22:57;3.30;;;1.70;;
14080;SDS011;7116;52.152;5.392;2023-06-26T14:25:23;6.20;;;1.80;;
14080;SDS011;7116;52.152;5.392;2023-06-26T14:27:48;3.03;;;1.20;;
14080;SDS011;7116;52.152;5.392;2023-06-26T14:30:13;3.07;;;1.60;;
14080;SDS011;7116;52.152;5.392;2023-06-26T14:32:38;3.40;;;1.40;;
14080;SDS011;7116;52.152;5.392;2023-06-26T14:35:04;3.90;;;1.90;;
14080;SDS011;7116;52.152;5.392;2023-06-26T14:37:29;3.90;;;1.57;;
14080;SDS011;7116;52.152;5.392;2023-06-26T14:39:55;5.23;;;1.67;;
14080;SDS011;7116;52.152;5.392;2023-06-26T14:42:20;3.13;;;1.33;;
14080;SDS011;7116;52.152;5.392;2023-06-26T14:44:45;3.77;;;1.90;;
14080;SDS011;7116;52.152;5.392;2023-06-26T14:47:13;3.90;;;1.73;;
14080;SDS011;7116;52.152;5.392;2023-06-26T14:49:38;3.47;;;1.80;;
14080;SDS011;7116;52.152;5.392;2023-06-26T14:52:04;3.07;;;1.70;;
14080;SDS011;7116;52.152;5.392;2023-06-26T14:54:29;2.33;;;1.60;;
14080;SDS011;7116;52.152;5.392;2023-06-26T14:56:54;3.33;;;1.60;;
14080;SDS011;7116;52.152;5.392;2023-06-26T14:59:19;6.23;;;1.93;;
14080;SDS011;7116;52.152;5.392;2023-06-26T15:01:45;5.10;;;1.57;;
14080;SDS011;7116;52.152;5.392;2023-06-26T15:04:10;4.03;;;2.00;;
14080;SDS011;7116;52.152;5.392;2023-06-26T15:06:35;3.10;;;1.50;;
14080;SDS011;7116;52.152;5.392;2023-06-26T15:09:00;4.37;;;1.97;;
14080;SDS011;7116;52.152;5.392;2023-06-26T15:11:26;4.50;;;1.77;;
14080;SDS011;7116;52.152;5.392;2023-06-26T15:13:52;4.53;;;1.42;;
14080;SDS011;7116;52.152;5.392;2023-06-26T15:16:17;2.90;;;1.70;;
14080;SDS011;7116;52.152;5.392;2023-06-26T15:18:43;4.97;;;1.80;;
14080;SDS011;7116;52.152;5.392;2023-06-26T15:21:08;4.10;;;1.80;;
14080;SDS011;7116;52.152;5.392;2023-06-26T15:23:34;3.90;;;1.87;;
14080;SDS011;7116;52.152;5.392;2023-06-26T15:25:59;3.08;;;1.70;;
14080;SDS011;7116;52.152;5.392;2023-06-26T15:28:24;2.47;;;1.50;;
14080;SDS011;7116;52.152;5.392;2023-06-26T15:30:50;3.10;;;1.60;;
14080;SDS011;7116;52.152;5.392;2023-06-26T15:33:15;5.10;;;1.80;;
14080;SDS011;7116;52.152;5.392;2023-06-26T15:35:40;4.53;;;1.63;;
14080;SDS011;7116;52.152;5.392;2023-06-26T15:38:05;4.03;;;1.60;;
14080;SDS011;7116;52.152;5.392;2023-06-26T15:40:31;3.30;;;1.70;;
14080;SDS011;7116;52.152;5.392;2023-06-26T15:42:56;4.07;;;1.90;;
14080;SDS011;7116;52.152;5.392;2023-06-26T15:45:21;4.80;;;1.87;;
14080;SDS011;7116;52.152;5.392;2023-06-26T15:47:48;2.92;;;1.63;;
14080;SDS011;7116;52.152;5.392;2023-06-26T15:50:13;2.25;;;1.60;;
14080;SDS011;7116;52.152;5.392;2023-06-26T15:52:38;3.53;;;1.80;;
14080;SDS011;7116;52.152;5.392;2023-06-26T15:55:04;5.07;;;1.90;;
14080;SDS011;7116;52.152;5.392;2023-06-26T15:57:30;2.80;;;1.70;;
14080;SDS011;7116;52.152;5.392;2023-06-26T15:59:56;2.87;;;1.83;;
14080;SDS011;7116;52.152;5.392;2023-06-26T16:02:21;3.65;;;1.85;;
14080;SDS011;7116;52.152;5.392;2023-06-26T16:04:46;3.00;;;1.67;;
14080;SDS011;7116;52.152;5.392;2023-06-26T16:07:11;4.33;;;1.90;;
14080;SDS011;7116;52.152;5.392;2023-06-26T16:09:37;4.23;;;1.70;;
14080;SDS011;7116;52.152;5.392;2023-06-26T16:12:02;3.43;;;1.53;;
14080;SDS011;7116;52.152;5.392;2023-06-26T16:14:27;3.80;;;1.70;;
14080;SDS011;7116;52.152;5.392;2023-06-26T16:16:53;5.80;;;1.93;;
14080;SDS011;7116;52.152;5.392;2023-06-26T16:19:18;3.90;;;2.00;;
14080;SDS011;7116;52.152;5.392;2023-06-26T16:21:43;3.80;;;1.90;;
14080;SDS011;7116;52.152;5.392;2023-06-26T16:24:08;5.57;;;2.20;;